Detall de PIREP

Printer-friendly versionPDF version

[2010/12/11 21:34:00]
Flight IATA:CT3223
Pilot Number:042
Company ICAO:CAT
Aircraft Type:B744/E
PAX:200
Departing Airport: LEPA
Destination Airport: LPPT
Alternate Airport:LEMG
Online: VATSIM
Route:TURIA UN733 CJN UN975 ELVAR DCT ESP
Flight Level:FL330
No Slew and time accel
No pause
Crash detect
Detect pilot in Cockpit between each 30 and 45 minutes
21:34 Zero fuel Weight: 466689 Lbs, Fuel Weight: 299251 Lbs
21:34 VATSIM:LEPA 112100Z 00000KT 9999 FEW030 06/05 Q1021 NOSIG
21:34 VATSIM:LPPT 112100Z 08003KT CAVOK 15/14 Q1019 NOSIG
21:34 VOICE CATALONIAN
21:41 Parking Brakes off
21:52 Take-off
21:52 Take off Weight: 762686 Lbs
21:52 Wind: 000 @ 000 Knots Heading: 058
21:52 POS N39 33 03 E002 45 07
21:52 Gear Up: 197 Knots
21:52 Flaps:4 at 197 Knots
21:52 Flaps:3 at 193 Knots
21:53 Flaps:2 at 228 Knots
21:53 Flaps:1 at 234 Knots
21:55 Flaps:0 at 240 Knots
22:07 Wind:278@023 Knots Heading: 250 Ground Speed: 452 Knots Altitude 27155 ft
22:22 Wind:267@043 Knots Heading: 297 Ground Speed: 444 Knots Altitude 32201 ft
22:37 Wind:241@002 Knots Heading: 253 Ground Speed: 480 Knots Altitude 32234 ft
22:52 Wind:219@043 Knots Heading: 251 Ground Speed: 448 Knots Altitude 32211 ft
23:07 Wind:209@037 Knots Heading: 239 Ground Speed: 296 Knots Altitude 19648 ft
23:08 Flaps:1 at 247 Knots
23:15 Flaps:2 at 235 Knots
23:15 Flaps:3 at 220 Knots
23:22 Wind:058@002 Knots Heading: 240 Ground Speed: 199 Knots Altitude 3996 ft
23:33 Gear Down: 185 Knots
23:33 Flaps:4 at 184 Knots
23:34 Flaps:5 at 172 Knots
23:35 Flaps:6 at 163 Knots
23:37 Wind:086@002 Knots Heading: 023 Ground Speed: 151 Knots Altitude 1253 ft
23:38 TouchDown:Rate -153 ft/min Speed: 145 Knots
23:38 VATSIM:LPPT 112300Z 08002KT CAVOK 14/13 Q1018 NOSIG
23:38 Land
23:38 Wind:086@002 Knots
23:38 Heading: 022
23:38 Flight Duration: 01:46
23:38 Landing Weight: 709077 Lbs
23:38 POS N38 46 46 W009 08 12
23:39 Parking brakes on
23:39 Block to Block Duration: 01:58
23:39 Final Fuel: 242141 Lbls
23:39 Spent Fuel: 57109 Lbls
23:39 Flight Length: 585 NM
23:39 TOD Land Length: 585 NM

Exportar CSV

Powered by Drupal - Modified by Danger4k